createdAt,value
2022-09-29T00:01:16.746Z,9.27
2022-09-29T00:04:02.882Z,9.12
2022-09-29T00:06:48.649Z,9.22
2022-09-29T00:09:35.007Z,9.25
2022-09-29T00:12:20.435Z,9.18
2022-09-29T00:15:07.113Z,9.23
2022-09-29T00:18:12.747Z,9.15
2022-09-29T00:21:07.953Z,9.21
2022-09-29T00:23:53.301Z,9.24
2022-09-29T00:26:39.311Z,9.36
2022-09-29T00:29:24.880Z,9.29
2022-09-29T00:32:10.740Z,9.31
2022-09-29T00:34:56.191Z,9.21
2022-09-29T00:37:41.768Z,9.27
2022-09-29T00:40:27.661Z,9.27
2022-09-29T00:43:20.508Z,9.32
2022-09-29T00:46:07.249Z,9.35
2022-09-29T00:48:59.211Z,9.39
2022-09-29T00:51:49.408Z,9.39
2022-09-29T00:54:42.804Z,9.33
2022-09-29T00:57:32.179Z,9.33
2022-09-29T01:00:18.322Z,9.34
2022-09-29T01:03:13.711Z,9.35
2022-09-29T01:06:02.143Z,9.35
2022-09-29T01:09:01.882Z,9.38
2022-09-29T01:11:47.763Z,9.22
2022-09-29T01:14:35.555Z,9.16
2022-09-29T01:17:21.972Z,9.23
2022-09-29T01:20:13.143Z,9.24
2022-09-29T01:23:23.853Z,9.21
2022-09-29T01:26:45.969Z,9.08
2022-09-29T01:30:08.862Z,9.13
2022-09-29T01:33:23.777Z,9.09
2022-09-29T01:36:12.681Z,9.04
2022-09-29T01:39:19.474Z,9.01
2022-09-29T01:42:19.087Z,8.78
2022-09-29T01:45:18.283Z,9.01
2022-09-29T01:48:07.832Z,8.92
2022-09-29T01:50:57.135Z,9.00
2022-09-29T01:53:52.194Z,9.07
2022-09-29T01:56:44.622Z,9.02
2022-09-29T01:59:46.066Z,8.98
2022-09-29T02:02:40.815Z,8.94
2022-09-29T02:05:33.555Z,9.02
2022-09-29T02:08:27.813Z,8.90
2022-09-29T02:11:13.979Z,8.99
2022-09-29T02:14:07.923Z,9.01
2022-09-29T02:17:13.713Z,8.96
2022-09-29T02:19:59.245Z,8.98
2022-09-29T02:22:45.396Z,8.96
2022-09-29T02:25:35.416Z,8.94
2022-09-29T02:28:21.187Z,8.87
2022-09-29T02:31:07.794Z,8.99
2022-09-29T02:33:53.741Z,8.98
2022-09-29T02:36:45.244Z,8.97
2022-09-29T02:39:31.190Z,8.72
2022-09-29T02:42:32.288Z,9.02
2022-09-29T02:45:23.860Z,9.00
2022-09-29T02:48:18.501Z,9.04
2022-09-29T02:51:07.643Z,9.04
2022-09-29T02:54:25.397Z,9.06
2022-09-29T02:57:14.700Z,9.09
2022-09-29T03:00:10.572Z,9.08
2022-09-29T03:02:57.332Z,9.00
2022-09-29T03:05:46.681Z,9.00
2022-09-29T03:08:33.187Z,9.00
2022-09-29T03:11:18.889Z,8.98
2022-09-29T03:14:06.571Z,9.07
2022-09-29T03:16:52.133Z,9.03
2022-09-29T03:19:37.779Z,9.06
2022-09-29T03:22:23.539Z,8.97
2022-09-29T03:25:09.524Z,9.08
2022-09-29T03:27:55.373Z,9.06
2022-09-29T03:30:41.165Z,9.08
2022-09-29T03:33:26.488Z,9.05
2022-09-29T03:36:12.495Z,9.04
2022-09-29T03:38:57.939Z,8.98
2022-09-29T03:41:43.584Z,9.00
2022-09-29T03:44:29.350Z,8.75
2022-09-29T03:47:14.886Z,8.93
2022-09-29T03:50:00.308Z,8.92
2022-09-29T03:52:46.169Z,8.77
2022-09-29T03:55:31.880Z,8.78
2022-09-29T03:58:18.055Z,8.86
2022-09-29T04:01:03.607Z,8.86
2022-09-29T04:03:49.773Z,8.90
2022-09-29T04:06:36.318Z,8.90
2022-09-29T04:09:22.016Z,8.81
2022-09-29T04:12:07.457Z,8.86
2022-09-29T04:14:53.668Z,8.78
2022-09-29T04:17:39.294Z,8.77
2022-09-29T04:20:25.622Z,8.83
2022-09-29T04:23:12.753Z,8.93
2022-09-29T04:25:58.577Z,8.84
2022-09-29T04:28:44.169Z,8.97
2022-09-29T04:31:30.143Z,9.01
2022-09-29T04:34:18.933Z,8.97
2022-09-29T04:37:11.294Z,8.92
2022-09-29T04:39:57.529Z,8.95
2022-09-29T04:42:43.341Z,8.94
2022-09-29T04:45:28.940Z,9.08
2022-09-29T04:48:14.868Z,8.95
2022-09-29T04:51:00.831Z,9.09
2022-09-29T04:53:46.617Z,9.06
2022-09-29T04:56:32.178Z,9.09
2022-09-29T04:59:18.261Z,8.96
2022-09-29T05:02:03.603Z,9.05
2022-09-29T05:04:49.279Z,8.97
2022-09-29T05:07:35.259Z,8.94
2022-09-29T05:10:21.313Z,8.99
2022-09-29T05:13:06.746Z,8.95
2022-09-29T05:15:56.560Z,8.89
2022-09-29T05:18:42.029Z,9.02
2022-09-29T05:21:29.121Z,9.00
2022-09-29T05:24:15.231Z,9.06
2022-09-29T05:27:01.202Z,9.08
2022-09-29T05:29:46.900Z,9.11
2022-09-29T05:32:33.048Z,9.17
2022-09-29T05:35:18.580Z,9.18
2022-09-29T05:38:04.510Z,9.13
2022-09-29T05:40:50.800Z,9.16
2022-09-29T05:43:37.298Z,9.23
2022-09-29T05:46:23.504Z,9.18
2022-09-29T05:49:09.303Z,9.12
2022-09-29T05:51:54.766Z,9.12
2022-09-29T05:54:40.621Z,9.01
2022-09-29T05:57:26.348Z,9.02
2022-09-29T06:00:12.526Z,9.10
2022-09-29T06:03:00.107Z,9.10
2022-09-29T06:05:46.153Z,9.12
2022-09-29T06:08:32.473Z,9.11
2022-09-29T06:11:27.627Z,9.15
2022-09-29T06:14:13.345Z,9.08
2022-09-29T06:17:00.002Z,9.26
2022-09-29T06:19:45.462Z,9.30
2022-09-29T06:22:31.709Z,9.30
2022-09-29T06:25:17.436Z,9.39
2022-09-29T06:28:03.818Z,9.25
2022-09-29T06:30:49.573Z,9.38
2022-09-29T06:33:36.994Z,9.38
2022-09-29T06:36:44.433Z,9.40
2022-09-29T06:39:30.482Z,9.37
2022-09-29T06:42:16.250Z,9.38
2022-09-29T06:45:02.447Z,9.41
2022-09-29T06:47:48.482Z,9.48
2022-09-29T06:50:35.187Z,9.44
2022-09-29T06:53:29.656Z,9.50
2022-09-29T06:56:20.092Z,9.57
2022-09-29T06:59:05.985Z,9.76
2022-09-29T07:01:52.047Z,9.83
2022-09-29T07:04:37.688Z,9.87
2022-09-29T07:07:23.694Z,9.85
2022-09-29T07:10:09.987Z,9.82
2022-09-29T07:12:55.726Z,9.91
2022-09-29T07:15:41.988Z,10.23
2022-09-29T07:18:28.010Z,10.57
2022-09-29T07:21:17.945Z,10.82
2022-09-29T07:24:04.045Z,11.19
2022-09-29T07:26:49.777Z,11.12
2022-09-29T07:29:35.440Z,11.24
2022-09-29T07:32:27.856Z,11.15
2022-09-29T07:35:14.636Z,11.00
2022-09-29T07:38:00.007Z,10.94
2022-09-29T07:40:45.736Z,11.10
2022-09-29T07:43:31.998Z,11.13
2022-09-29T07:46:17.583Z,11.32
2022-09-29T07:49:03.285Z,11.26
2022-09-29T07:51:48.910Z,11.34
2022-09-29T07:54:35.033Z,11.22
2022-09-29T07:57:20.701Z,11.40
2022-09-29T08:00:06.415Z,11.32
2022-09-29T08:03:03.246Z,11.34
2022-09-29T08:05:49.264Z,11.42
2022-09-29T08:08:37.183Z,11.41
2022-09-29T08:11:31.168Z,11.36
2022-09-29T08:14:18.190Z,11.31
2022-09-29T08:17:04.426Z,11.51
2022-09-29T08:19:50.265Z,11.45
2022-09-29T08:22:36.059Z,11.53
2022-09-29T08:25:22.000Z,11.54
2022-09-29T08:28:07.644Z,11.60
2022-09-29T08:30:53.300Z,11.65
2022-09-29T08:33:39.115Z,11.61
2022-09-29T08:36:25.017Z,11.82
2022-09-29T08:39:12.118Z,11.96
2022-09-29T08:42:16.270Z,12.01
2022-09-29T08:45:15.598Z,11.99
2022-09-29T08:48:24.066Z,11.94
2022-09-29T08:51:41.585Z,12.11
2022-09-29T08:54:39.070Z,12.32
2022-09-29T08:57:25.425Z,12.33
2022-09-29T09:00:13.255Z,12.15
2022-09-29T09:03:22.760Z,12.29
2022-09-29T09:06:30.717Z,12.27
2022-09-29T09:09:41.830Z,12.37
2022-09-29T09:12:40.036Z,12.35
2022-09-29T09:15:28.281Z,12.23
2022-09-29T09:18:31.876Z,12.15
2022-09-29T09:21:28.612Z,12.20
2022-09-29T09:24:20.309Z,12.18
2022-09-29T09:27:14.029Z,12.17
2022-09-29T09:30:06.322Z,12.12
2022-09-29T09:32:59.090Z,12.13
2022-09-29T09:35:56.578Z,12.15
2022-09-29T09:38:55.426Z,12.06
2022-09-29T09:41:43.218Z,11.96
2022-09-29T09:44:50.832Z,12.17
2022-09-29T09:47:44.307Z,12.24
2022-09-29T09:50:42.978Z,12.23
2022-09-29T09:53:34.593Z,12.50
2022-09-29T09:56:30.937Z,12.53
2022-09-29T09:59:28.176Z,12.58
2022-09-29T10:02:21.135Z,12.51
2022-09-29T10:05:14.185Z,12.64
2022-09-29T10:08:00.603Z,12.55
2022-09-29T10:10:57.498Z,12.71
2022-09-29T10:13:44.278Z,12.56
2022-09-29T10:16:36.804Z,12.71
2022-09-29T10:19:42.017Z,12.60
2022-09-29T10:22:29.144Z,12.57
2022-09-29T10:25:14.991Z,12.56
2022-09-29T10:28:00.911Z,12.53
2022-09-29T10:30:46.830Z,12.39
2022-09-29T10:33:32.776Z,12.51
2022-09-29T10:36:21.709Z,12.51
2022-09-29T10:39:31.445Z,12.38
2022-09-29T10:42:24.109Z,12.27
2022-09-29T10:45:15.235Z,12.20
2022-09-29T10:48:10.461Z,12.28
2022-09-29T10:53:50.088Z,12.31
2022-09-29T10:56:37.118Z,12.39
2022-09-29T10:59:24.176Z,12.43
2022-09-29T11:02:37.416Z,12.33
2022-09-29T11:05:23.834Z,12.30
2022-09-29T11:08:12.166Z,12.32
2022-09-29T11:11:03.580Z,12.27
2022-09-29T11:13:49.745Z,12.22
2022-09-29T11:16:37.630Z,12.43
2022-09-29T11:19:23.678Z,12.34
2022-09-29T11:22:39.277Z,12.43
2022-09-29T11:25:44.178Z,12.45
2022-09-29T11:28:42.041Z,12.52
2022-09-29T11:31:46.308Z,12.61
2022-09-29T11:34:50.546Z,12.56
2022-09-29T11:37:56.121Z,12.61
2022-09-29T11:40:49.589Z,12.64
2022-09-29T11:43:54.915Z,12.65
2022-09-29T11:47:15.626Z,12.68
2022-09-29T11:50:07.107Z,12.85
2022-09-29T11:53:10.998Z,12.91
2022-09-29T11:56:03.232Z,12.90
2022-09-29T11:59:07.574Z,12.95
2022-09-29T12:02:11.796Z,12.98
2022-09-29T12:05:23.374Z,13.04
2022-09-29T12:08:24.693Z,13.05
2022-09-29T12:11:44.414Z,12.90
2022-09-29T12:14:45.700Z,13.05
2022-09-29T12:17:36.294Z,13.01
2022-09-29T12:20:26.810Z,13.06
2022-09-29T12:23:25.344Z,13.08
2022-09-29T12:26:20.852Z,13.10
2022-09-29T12:29:06.469Z,13.27
2022-09-29T12:31:53.816Z,13.25
2022-09-29T12:34:44.363Z,13.18
2022-09-29T12:37:33.503Z,13.25
2022-09-29T12:40:33.335Z,13.08
2022-09-29T12:43:29.805Z,13.10
2022-09-29T12:46:22.736Z,13.01
2022-09-29T12:49:33.280Z,13.03
2022-09-29T12:52:27.117Z,13.01
2022-09-29T12:55:25.671Z,12.98
2022-09-29T12:58:21.765Z,12.94
2022-09-29T13:01:28.082Z,12.97
2022-09-29T13:04:22.990Z,12.90
2022-09-29T13:07:42.356Z,12.87
2022-09-29T13:10:46.442Z,12.83
2022-09-29T13:13:48.734Z,12.81
2022-09-29T13:16:47.681Z,12.77
2022-09-29T13:19:59.054Z,12.73
2022-09-29T13:22:59.695Z,12.69
2022-09-29T13:26:07.082Z,12.49
2022-09-29T13:28:59.998Z,12.67
2022-09-29T13:31:46.632Z,12.73
2022-09-29T13:34:35.298Z,12.71
2022-09-29T13:37:22.652Z,12.89
2022-09-29T13:40:17.415Z,12.94
2022-09-29T13:43:06.485Z,12.96
2022-09-29T13:45:52.174Z,12.88
2022-09-29T13:48:47.385Z,12.92
2022-09-29T13:51:45.423Z,12.93
2022-09-29T13:54:44.617Z,12.93
2022-09-29T13:57:30.444Z,12.93
2022-09-29T14:00:18.617Z,12.76
2022-09-29T14:03:07.525Z,12.86
2022-09-29T14:05:55.208Z,12.81
2022-09-29T14:09:08.034Z,12.88
2022-09-29T14:11:54.742Z,12.74
2022-09-29T14:14:43.436Z,12.75
2022-09-29T14:17:37.535Z,12.80
2022-09-29T14:20:26.038Z,12.74
2022-09-29T14:23:12.438Z,12.81
2022-09-29T14:25:59.901Z,12.90
2022-09-29T14:28:46.142Z,12.90
2022-09-29T14:31:32.041Z,12.90
2022-09-29T14:34:19.220Z,12.85
2022-09-29T14:37:04.776Z,12.88
2022-09-29T14:40:10.038Z,12.94
2022-09-29T14:43:16.381Z,12.86
2022-09-29T14:46:23.803Z,12.95
2022-09-29T14:49:49.557Z,12.94
2022-09-29T14:53:13.426Z,12.97
2022-09-29T14:56:34.561Z,12.85
2022-09-29T14:59:30.591Z,12.96
2022-09-29T15:02:19.187Z,12.92
2022-09-29T15:05:31.006Z,12.91
2022-09-29T15:08:39.209Z,12.92
2022-09-29T15:11:29.118Z,12.89
2022-09-29T15:14:20.888Z,12.90
2022-09-29T15:17:35.270Z,12.78
2022-09-29T15:20:34.111Z,12.69
2022-09-29T15:23:52.266Z,12.78
2022-09-29T15:26:38.986Z,12.66
2022-09-29T15:29:25.060Z,12.74
2022-09-29T15:32:22.029Z,12.62
2022-09-29T15:35:09.209Z,12.57
2022-09-29T15:37:58.181Z,12.57
2022-09-29T15:40:46.067Z,12.56
2022-09-29T15:43:41.116Z,12.31
2022-09-29T15:46:35.342Z,12.15
2022-09-29T15:49:22.048Z,12.39
2022-09-29T15:52:13.685Z,12.36
2022-09-29T15:54:59.897Z,12.33
2022-09-29T15:57:49.946Z,12.32
2022-09-29T16:00:35.672Z,12.28
2022-09-29T16:03:24.449Z,12.12
2022-09-29T16:06:28.058Z,12.19
2022-09-29T16:09:20.263Z,12.14
2022-09-29T16:12:07.332Z,12.08
2022-09-29T16:14:58.244Z,12.07
2022-09-29T16:17:43.958Z,12.03
2022-09-29T16:20:31.924Z,11.93
2022-09-29T16:23:41.277Z,11.94
2022-09-29T16:26:34.763Z,11.87
2022-09-29T16:29:20.359Z,11.85
2022-09-29T16:32:44.880Z,11.81
2022-09-29T16:35:41.864Z,11.75
2022-09-29T16:38:36.287Z,11.48
2022-09-29T16:41:34.279Z,11.49
2022-09-29T16:44:24.313Z,11.45
2022-09-29T16:47:09.928Z,11.42
2022-09-29T16:50:09.319Z,11.32
2022-09-29T16:52:56.944Z,11.23
2022-09-29T16:55:55.520Z,11.10
2022-09-29T16:58:41.384Z,11.04
2022-09-29T17:01:27.179Z,10.90
2022-09-29T17:04:12.743Z,10.91
2022-09-29T17:06:58.633Z,10.88
2022-09-29T17:09:46.243Z,10.81
2022-09-29T17:12:33.284Z,10.66
2022-09-29T17:15:19.452Z,10.73
2022-09-29T17:18:05.126Z,10.61
2022-09-29T17:20:51.215Z,10.58
2022-09-29T17:23:36.653Z,10.52
2022-09-29T17:26:53.815Z,10.48
2022-09-29T17:29:41.233Z,10.58
2022-09-29T17:32:27.172Z,10.49
2022-09-29T17:35:14.566Z,10.40
2022-09-29T17:38:00.308Z,10.45
2022-09-29T17:41:00.105Z,10.36
2022-09-29T17:43:47.437Z,10.24
2022-09-29T17:46:33.262Z,10.08
2022-09-29T17:49:19.137Z,10.02
2022-09-29T17:52:07.136Z,9.94
2022-09-29T17:54:52.732Z,9.84
2022-09-29T17:57:39.117Z,9.91
2022-09-29T18:00:38.530Z,9.83
2022-09-29T18:03:24.512Z,9.73
2022-09-29T18:06:15.832Z,9.67
2022-09-29T18:09:01.547Z,9.50
2022-09-29T18:11:48.237Z,9.46
2022-09-29T18:14:35.533Z,9.45
2022-09-29T18:17:21.059Z,9.34
2022-09-29T18:20:22.009Z,9.38
2022-09-29T18:23:08.134Z,9.18
2022-09-29T18:25:54.128Z,9.28
2022-09-29T18:28:40.616Z,9.31
2022-09-29T18:31:29.517Z,9.11
2022-09-29T18:34:17.794Z,9.14
2022-09-29T18:37:04.616Z,9.18
2022-09-29T18:39:50.465Z,9.18
2022-09-29T18:42:46.880Z,8.99
2022-09-29T18:45:35.309Z,9.03
2022-09-29T18:48:21.256Z,8.80
2022-09-29T18:51:06.684Z,8.81
2022-09-29T18:53:53.001Z,8.74
2022-09-29T18:56:39.177Z,8.62
2022-09-29T18:59:24.705Z,8.42
2022-09-29T19:02:13.236Z,8.49
2022-09-29T19:04:59.578Z,8.42
2022-09-29T19:07:45.482Z,8.32
2022-09-29T19:10:33.439Z,8.21
2022-09-29T19:13:19.863Z,8.18
2022-09-29T19:16:05.936Z,8.26
2022-09-29T19:18:52.754Z,8.13
2022-09-29T19:21:38.484Z,8.06
2022-09-29T19:24:24.575Z,8.16
2022-09-29T19:27:10.660Z,8.13
2022-09-29T19:30:02.251Z,7.97
2022-09-29T19:32:50.571Z,8.01
2022-09-29T19:35:36.559Z,7.85
2022-09-29T19:38:22.673Z,7.81
2022-09-29T19:41:24.748Z,7.83
2022-09-29T19:44:10.650Z,7.84
2022-09-29T19:46:56.228Z,7.84
2022-09-29T19:49:41.875Z,7.75
2022-09-29T19:52:28.841Z,7.70
2022-09-29T19:55:15.365Z,7.69
2022-09-29T19:58:02.224Z,7.70
2022-09-29T20:00:47.955Z,7.68
2022-09-29T20:03:33.888Z,7.67
2022-09-29T20:06:20.027Z,7.64
2022-09-29T20:09:06.627Z,7.59
2022-09-29T20:11:53.046Z,7.43
2022-09-29T20:14:39.366Z,7.53
2022-09-29T20:17:25.193Z,7.47
2022-09-29T20:20:11.829Z,7.37
2022-09-29T20:22:57.776Z,7.31
2022-09-29T20:25:43.769Z,7.40
2022-09-29T20:28:31.281Z,7.38
2022-09-29T20:31:16.782Z,7.42
2022-09-29T20:34:02.824Z,7.21
2022-09-29T20:36:54.177Z,7.33
2022-09-29T20:39:40.841Z,7.22
2022-09-29T20:42:26.986Z,7.33
2022-09-29T20:45:12.840Z,7.22
2022-09-29T20:47:58.181Z,7.17
2022-09-29T20:50:44.428Z,7.21
2022-09-29T20:53:34.988Z,7.15
2022-09-29T20:56:21.852Z,7.00
2022-09-29T20:59:18.792Z,7.12
2022-09-29T21:02:04.802Z,7.14
2022-09-29T21:04:50.753Z,7.03
2022-09-29T21:07:36.445Z,7.09
2022-09-29T21:10:21.916Z,6.92
2022-09-29T21:13:08.093Z,6.94
2022-09-29T21:15:53.553Z,6.87
2022-09-29T21:18:39.577Z,6.93
2022-09-29T21:21:25.015Z,6.96
2022-09-29T21:24:12.336Z,6.91
2022-09-29T21:26:59.077Z,6.76
2022-09-29T21:29:45.099Z,6.84
2022-09-29T21:32:30.461Z,6.78
2022-09-29T21:35:16.450Z,6.78
2022-09-29T21:38:01.852Z,6.71
2022-09-29T21:40:47.801Z,6.71
2022-09-29T21:43:34.759Z,6.70
2022-09-29T21:46:23.203Z,6.73
2022-09-29T21:49:09.994Z,6.69
2022-09-29T21:52:00.003Z,6.60
2022-09-29T21:54:47.141Z,6.48
2022-09-29T21:57:33.046Z,6.48
2022-09-29T22:00:18.996Z,6.46
2022-09-29T22:03:04.849Z,6.51
2022-09-29T22:05:51.598Z,6.39
2022-09-29T22:08:37.331Z,6.41
2022-09-29T22:11:28.267Z,6.55
2022-09-29T22:14:14.100Z,6.52
2022-09-29T22:16:59.764Z,6.42
2022-09-29T22:19:48.626Z,6.40
2022-09-29T22:22:34.525Z,6.38
2022-09-29T22:25:20.457Z,6.32
2022-09-29T22:28:06.216Z,6.34
2022-09-29T22:30:51.987Z,6.25
2022-09-29T22:33:39.143Z,6.24
2022-09-29T22:36:29.561Z,6.32
2022-09-29T22:39:15.139Z,6.22
2022-09-29T22:42:01.289Z,6.31
2022-09-29T22:44:47.051Z,6.31
2022-09-29T22:47:33.257Z,6.29
2022-09-29T22:50:20.077Z,6.25
2022-09-29T22:53:05.988Z,6.31
2022-09-29T22:55:52.064Z,6.27
2022-09-29T22:58:41.922Z,6.22
2022-09-29T23:01:27.441Z,6.27
2022-09-29T23:04:14.270Z,6.11
2022-09-29T23:07:01.561Z,6.06
2022-09-29T23:09:47.648Z,6.06
2022-09-29T23:12:42.663Z,6.12
2022-09-29T23:15:28.401Z,6.20
2022-09-29T23:18:13.881Z,6.08
2022-09-29T23:21:01.128Z,6.15
2022-09-29T23:24:13.219Z,6.16
2022-09-29T23:27:00.496Z,6.02
2022-09-29T23:29:46.718Z,6.02
2022-09-29T23:32:32.550Z,5.98
2022-09-29T23:35:18.395Z,6.14
2022-09-29T23:38:23.296Z,6.10
2022-09-29T23:41:10.809Z,6.03
2022-09-29T23:44:05.221Z,6.12
2022-09-29T23:46:51.679Z,6.17
2022-09-29T23:49:37.412Z,6.06
2022-09-29T23:52:23.916Z,6.12
2022-09-29T23:55:10.390Z,6.05
2022-09-29T23:57:56.186Z,6.21
